Time;durP1;ratioP1;P1;durP2;ratioP2;P2;SDS_P1;SDS_P2;PMS_P1;PMS_P2;Temp;Humidity;BMP_temperature;BMP_pressure;BME280_temperature;BME280_humidity;BME280_pressure;Samples;Min_cycle;Max_cycle;Signal;HPM_P1;HPM_P2
2022/05/05 00:00:47;;;;;;;7.27;5.93;;;16.30;97.60;;;;;;4970003;28;20474;-69
2022/05/05 00:03:12;;;;;;;6.20;4.40;;;16.30;97.50;;;;;;4970742;28;20232;-69
2022/05/05 00:05:38;;;;;;;7.83;5.40;;;16.20;97.30;;;;;;4953402;28;20549;-69
2022/05/05 00:08:04;;;;;;;5.70;4.50;;;16.10;97.00;;;;;;4954196;28;20253;-69
2022/05/05 00:15:58;;;;;;;4.43;4.00;;;15.90;96.70;;;;;;4970857;28;20473;-69
2022/05/05 00:18:24;;;;;;;6.70;5.00;;;15.90;96.50;;;;;;4965294;28;21006;-69
2022/05/05 00:20:49;;;;;;;6.23;4.47;;;15.80;96.30;;;;;;4975737;28;20226;-69
2022/05/05 00:23:15;;;;;;;6.40;4.33;;;15.80;96.40;;;;;;4970770;28;20222;-69
2022/05/05 00:25:41;;;;;;;5.10;4.03;;;15.80;96.30;;;;;;4965614;28;20233;-69
2022/05/05 00:28:07;;;;;;;6.70;4.10;;;15.80;96.30;;;;;;4968969;28;20223;-68
2022/05/05 00:30:32;;;;;;;4.50;4.10;;;15.70;95.90;;;;;;4969002;28;20226;-70
2022/05/05 00:32:58;;;;;;;5.23;4.30;;;15.70;95.90;;;;;;4985981;28;20525;-69
2022/05/05 00:35:24;;;;;;;5.07;4.00;;;15.70;96.20;;;;;;4969956;28;20310;-69
2022/05/05 00:37:49;;;;;;;5.40;3.70;;;15.60;95.90;;;;;;4970394;28;20227;-67
2022/05/05 00:40:16;;;;;;;4.73;3.50;;;15.60;95.90;;;;;;4970331;28;20236;-69
2022/05/05 00:42:42;;;;;;;5.37;4.03;;;15.50;95.70;;;;;;4970374;28;20215;-67
2022/05/05 00:45:08;;;;;;;9.20;4.00;;;15.50;95.70;;;;;;4970757;28;21030;-70
2022/05/05 00:47:33;;;;;;;6.03;4.07;;;15.40;95.80;;;;;;4969308;28;20466;-69
2022/05/05 00:49:59;;;;;;;6.33;4.67;;;15.40;95.50;;;;;;4982373;28;20502;-68
2022/05/05 00:52:26;;;;;;;3.93;3.50;;;15.40;95.70;;;;;;4966881;28;20215;-69
2022/05/05 00:54:55;;;;;;;5.30;4.13;;;15.40;95.90;;;;;;4968869;28;20712;-68
2022/05/05 00:57:21;;;;;;;6.43;4.00;;;15.30;95.60;;;;;;4969338;28;20457;-69
2022/05/05 00:59:47;;;;;;;4.53;4.13;;;15.30;95.60;;;;;;4988237;28;20473;-69
2022/05/05 01:02:13;;;;;;;4.40;3.53;;;15.30;95.60;;;;;;4975164;28;20225;-68
2022/05/05 01:04:39;;;;;;;5.70;4.33;;;15.30;95.70;;;;;;4985835;28;20467;-69
2022/05/05 01:07:04;;;;;;;4.00;3.60;;;15.40;95.90;;;;;;4957910;28;20281;-69
2022/05/05 01:09:30;;;;;;;9.13;3.60;;;15.40;96.00;;;;;;4974408;28;20222;-69
2022/05/05 01:11:56;;;;;;;4.27;3.87;;;15.40;95.90;;;;;;4974802;28;20218;-69
2022/05/05 01:14:21;;;;;;;4.83;4.23;;;15.30;95.60;;;;;;4971916;28;20245;-69
2022/05/05 01:16:47;;;;;;;3.77;3.33;;;15.30;95.60;;;;;;4972683;28;20217;-67
2022/05/05 01:19:13;;;;;;;6.57;3.60;;;15.30;95.70;;;;;;4974310;28;20660;-70
2022/05/05 01:21:38;;;;;;;5.47;3.93;;;15.20;95.60;;;;;;4974416;28;20227;-68
2022/05/05 01:24:05;;;;;;;5.03;3.97;;;15.20;95.50;;;;;;4973085;28;20214;-69
2022/05/05 01:29:15;;;;;;;4.80;4.00;;;15.10;95.10;;;;;;4973578;28;20469;-69
2022/05/05 01:31:44;;;;;;;6.60;4.10;;;15.00;95.20;;;;;;4972723;28;21013;-68
2022/05/05 01:34:10;;;;;;;4.13;3.33;;;15.10;95.30;;;;;;4974239;28;20465;-67
2022/05/05 01:36:36;;;;;;;4.53;4.13;;;15.10;95.30;;;;;;4973317;28;20449;-70
2022/05/05 01:39:01;;;;;;;5.30;3.73;;;15.10;95.30;;;;;;4956044;28;20970;-68
2022/05/05 01:41:27;;;;;;;4.00;3.60;;;15.10;95.30;;;;;;4953936;28;20226;-69
2022/05/05 01:43:53;;;;;;;4.13;3.73;;;15.10;95.60;;;;;;4950138;28;20818;-69
2022/05/05 01:46:18;;;;;;;4.90;3.73;;;15.10;95.60;;;;;;4972980;28;20238;-69
2022/05/05 01:48:44;;;;;;;4.27;3.50;;;15.10;95.70;;;;;;4972918;28;20591;-69
2022/05/05 01:51:10;;;;;;;4.17;3.17;;;15.10;95.80;;;;;;4989120;28;20317;-70
2022/05/05 01:53:38;;;;;;;5.83;3.20;;;15.20;96.00;;;;;;4973768;28;20230;-68
2022/05/05 01:56:06;;;;;;;4.10;3.27;;;15.20;95.90;;;;;;4996970;28;20226;-69
2022/05/05 01:58:32;;;;;;;9.07;4.30;;;15.20;95.90;;;;;;4993081;28;20830;-69
2022/05/05 02:00:58;;;;;;;6.50;4.00;;;15.20;96.00;;;;;;4992707;28;20544;-69
2022/05/05 02:03:23;;;;;;;6.50;3.60;;;15.30;96.10;;;;;;4991776;28;20229;-69
2022/05/05 02:05:49;;;;;;;5.27;3.83;;;15.30;96.10;;;;;;5007730;28;20256;-68
2022/05/05 02:08:15;;;;;;;4.23;3.77;;;15.30;96.10;;;;;;4992820;28;20222;-69
2022/05/05 02:10:40;;;;;;;5.23;3.80;;;15.30;96.10;;;;;;5004604;28;20230;-69
2022/05/05 02:13:07;;;;;;;5.30;4.07;;;15.30;96.10;;;;;;4993404;28;20229;-69
2022/05/05 02:15:34;;;;;;;6.43;4.00;;;15.30;96.10;;;;;;4988281;28;20226;-69
2022/05/05 02:18:11;;;;;;;5.23;4.57;;;15.30;96.20;;;;;;4974203;28;20508;-69
2022/05/05 02:20:38;;;;;;;5.60;3.93;;;15.30;96.20;;;;;;4991760;28;20969;-69
2022/05/05 02:23:05;;;;;;;5.00;4.33;;;15.20;96.30;;;;;;4992949;28;20448;-69
2022/05/05 02:25:31;;;;;;;4.93;3.97;;;15.20;96.40;;;;;;4990136;28;20483;-69
2022/05/05 02:27:56;;;;;;;6.83;4.70;;;15.20;96.40;;;;;;4990974;28;20461;-69
2022/05/05 02:30:24;;;;;;;6.60;4.13;;;15.20;96.40;;;;;;4989808;28;20498;-69
2022/05/05 02:32:51;;;;;;;6.00;4.50;;;15.10;96.40;;;;;;4992510;28;20249;-69
2022/05/05 02:35:18;;;;;;;4.87;4.37;;;15.10;96.60;;;;;;4991371;28;20882;-69
2022/05/05 02:40:28;;;;;;;6.17;4.77;;;15.00;96.70;;;;;;4992726;28;20532;-69
2022/05/05 02:42:55;;;;;;;5.33;4.77;;;15.00;96.70;;;;;;4992085;28;20466;-69
2022/05/05 02:45:21;;;;;;;7.20;4.90;;;15.00;96.80;;;;;;4991787;28;20605;-69
2022/05/05 02:47:49;;;;;;;7.90;5.57;;;15.00;97.00;;;;;;4989927;28;20453;-69
2022/05/05 02:50:15;;;;;;;11.50;6.03;;;15.00;97.00;;;;;;4992874;28;20888;-68
2022/05/05 02:52:41;;;;;;;7.23;6.00;;;15.00;97.10;;;;;;5006189;28;20477;-67
2022/05/05 02:55:07;;;;;;;8.80;6.37;;;15.00;97.10;;;;;;4990515;28;20870;-69
2022/05/05 02:57:33;;;;;;;8.30;6.97;;;15.00;97.20;;;;;;4990272;28;20217;-70
2022/05/05 02:59:59;;;;;;;7.77;5.87;;;15.00;97.50;;;;;;4989567;28;20276;-68
2022/05/05 03:02:25;;;;;;;11.60;8.10;;;15.00;97.70;;;;;;4990673;28;20465;-69
2022/05/05 03:04:51;;;;;;;7.90;7.07;;;15.00;97.70;;;;;;5005493;28;20221;-69
2022/05/05 03:07:17;;;;;;;10.60;8.00;;;14.90;98.00;;;;;;4992004;28;20445;-69
2022/05/05 03:09:43;;;;;;;11.20;7.70;;;15.00;98.00;;;;;;5003207;28;20742;-69
2022/05/05 03:12:10;;;;;;;14.37;9.50;;;15.00;98.10;;;;;;4988995;28;20215;-69
2022/05/05 03:14:36;;;;;;;13.37;8.60;;;15.00;98.20;;;;;;4990272;28;20953;-69
2022/05/05 03:17:03;;;;;;;10.13;8.73;;;15.00;98.20;;;;;;4991796;28;20445;-69
2022/05/05 03:19:29;;;;;;;10.60;7.87;;;15.00;98.40;;;;;;4991195;28;20457;-69
2022/05/05 03:21:54;;;;;;;13.53;8.60;;;14.90;98.50;;;;;;4989446;28;20972;-68
2022/05/05 03:24:20;;;;;;;9.53;8.00;;;14.90;98.40;;;;;;4985797;28;20296;-69
2022/05/05 03:26:46;;;;;;;9.83;7.30;;;15.00;98.50;;;;;;5004596;28;20714;-69
2022/05/05 03:29:12;;;;;;;10.40;6.87;;;15.00;98.40;;;;;;4972896;28;20233;-69
2022/05/05 03:31:37;;;;;;;9.80;7.37;;;15.00;98.30;;;;;;4992119;28;20234;-69
2022/05/05 03:34:04;;;;;;;7.77;6.27;;;15.00;98.40;;;;;;4990830;28;20229;-69
2022/05/05 03:36:30;;;;;;;7.63;6.60;;;14.90;98.40;;;;;;4991481;28;20226;-67
2022/05/05 03:38:55;;;;;;;8.80;7.60;;;15.00;98.50;;;;;;4989037;28;20453;-69
2022/05/05 03:41:21;;;;;;;10.33;6.57;;;14.90;98.50;;;;;;4974141;28;20605;-69
2022/05/05 03:43:47;;;;;;;6.90;6.20;;;15.00;98.40;;;;;;4990686;28;20233;-69
2022/05/05 03:46:13;;;;;;;14.97;7.63;;;15.00;98.60;;;;;;4990168;28;20590;-68
2022/05/05 03:48:39;;;;;;;6.93;5.90;;;15.00;98.70;;;;;;4987521;28;20309;-69
2022/05/05 03:51:05;;;;;;;9.47;6.20;;;15.10;98.80;;;;;;4980601;28;20545;-69
2022/05/05 03:53:32;;;;;;;7.30;6.27;;;15.00;98.70;;;;;;5006354;28;20266;-67
2022/05/05 03:55:57;;;;;;;7.33;5.90;;;15.00;98.90;;;;;;4989514;28;20511;-68
2022/05/05 03:58:23;;;;;;;9.83;6.50;;;14.90;99.00;;;;;;4990920;28;20453;-69
2022/05/05 04:00:49;;;;;;;11.33;6.10;;;14.90;98.90;;;;;;4998535;28;20217;-68
2022/05/05 04:03:33;;;;;;;9.60;7.00;;;14.90;99.20;;;;;;4991475;28;20248;-69
2022/05/05 04:06:02;;;;;;;10.07;7.03;;;14.90;99.20;;;;;;4971174;28;20229;-69
2022/05/05 04:08:28;;;;;;;10.97;7.43;;;14.80;99.50;;;;;;4971190;28;20512;-69
2022/05/05 04:10:54;;;;;;;11.03;7.77;;;14.80;99.30;;;;;;4984942;28;20457;-69
2022/05/05 04:13:20;;;;;;;10.90;7.90;;;14.80;99.50;;;;;;4991234;28;20540;-70
2022/05/05 04:15:46;;;;;;;9.50;8.17;;;14.80;99.70;;;;;;4990286;28;21004;-67
2022/05/05 04:18:13;;;;;;;11.07;8.00;;;14.70;99.70;;;;;;4983918;28;20481;-69
2022/05/05 04:20:40;;;;;;;13.60;7.77;;;14.70;99.90;;;;;;4979897;28;20498;-68
2022/05/05 04:23:06;;;;;;;9.60;7.50;;;14.70;99.90;;;;;;4983196;28;20464;-69
2022/05/05 04:25:33;;;;;;;9.63;8.00;;;14.70;99.70;;;;;;4988603;28;20446;-69
2022/05/05 04:27:58;;;;;;;8.20;7.40;;;14.80;99.70;;;;;;4974659;28;20974;-69
2022/05/05 04:30:24;;;;;;;10.57;8.03;;;14.80;99.60;;;;;;4981485;28;20476;-68
2022/05/05 04:32:51;;;;;;;11.70;8.13;;;14.80;99.60;;;;;;4988609;28;20240;-69
2022/05/05 04:35:17;;;;;;;10.10;8.80;;;14.80;99.60;;;;;;4988884;28;20221;-68
2022/05/05 04:37:42;;;;;;;9.77;8.77;;;14.80;99.60;;;;;;4988343;28;20504;-69
2022/05/05 04:40:10;;;;;;;11.90;9.93;;;14.80;99.80;;;;;;4990022;28;20260;-69
2022/05/05 04:42:37;;;;;;;14.00;11.03;;;14.80;99.90;;;;;;4990282;28;20222;-69
2022/05/05 04:45:04;;;;;;;12.80;10.40;;;14.80;99.70;;;;;;4988170;28;20453;-69
2022/05/05 04:47:29;;;;;;;12.03;8.90;;;14.80;99.70;;;;;;4978531;28;20501;-69
2022/05/05 04:49:56;;;;;;;14.40;9.27;;;14.80;99.60;;;;;;4974123;28;20485;-69
2022/05/05 04:52:24;;;;;;;10.07;8.60;;;14.80;99.80;;;;;;4973845;28;20302;-69
2022/05/05 04:54:49;;;;;;;13.00;9.73;;;14.80;99.80;;;;;;4959386;28;20504;-69
2022/05/05 04:57:15;;;;;;;12.80;8.80;;;14.80;99.90;;;;;;4959559;28;20557;-69
2022/05/05 04:59:41;;;;;;;14.77;10.20;;;14.90;99.90;;;;;;4966304;28;20241;-69
2022/05/05 05:02:07;;;;;;;10.60;7.97;;;14.80;99.90;;;;;;4987182;28;21029;-69
2022/05/05 05:04:33;;;;;;;14.60;10.27;;;14.80;99.90;;;;;;4970230;28;20222;-69
2022/05/05 05:06:59;;;;;;;16.07;10.80;;;14.80;99.90;;;;;;4982068;28;20233;-70
2022/05/05 05:09:25;;;;;;;15.13;10.87;;;14.70;99.90;;;;;;4984455;28;20465;-68
2022/05/05 05:11:50;;;;;;;15.33;12.03;;;14.70;99.90;;;;;;4998801;28;20222;-68
2022/05/05 05:14:16;;;;;;;12.03;10.13;;;14.70;99.90;;;;;;4988869;28;20230;-67
2022/05/05 05:16:42;;;;;;;14.70;11.03;;;14.70;99.90;;;;;;4984883;28;20225;-68
2022/05/05 05:19:08;;;;;;;17.00;10.97;;;14.70;99.90;;;;;;4960999;28;20604;-68
2022/05/05 05:21:34;;;;;;;15.10;11.93;;;14.60;99.90;;;;;;4979832;28;20381;-69
2022/05/05 05:24:02;;;;;;;13.83;11.20;;;14.70;99.90;;;;;;4954196;28;20450;-69
2022/05/05 05:26:28;;;;;;;14.17;10.27;;;14.70;99.90;;;;;;4985576;28;20825;-69
2022/05/05 05:28:55;;;;;;;15.50;10.00;;;14.60;99.90;;;;;;4972996;28;20457;-69
2022/05/05 05:31:22;;;;;;;13.43;10.90;;;14.60;99.90;;;;;;4965075;28;20990;-69
2022/05/05 05:33:48;;;;;;;11.50;9.80;;;14.60;99.90;;;;;;4983081;28;20468;-68
2022/05/05 05:36:14;;;;;;;12.30;9.80;;;14.60;99.90;;;;;;4983144;28;20461;-68
2022/05/05 05:38:40;;;;;;;16.00;11.20;;;14.70;99.90;;;;;;4985721;28;20472;-69
2022/05/05 05:41:05;;;;;;;13.30;11.10;;;14.70;99.90;;;;;;4984271;28;20225;-69
2022/05/05 05:43:31;;;;;;;12.37;10.53;;;14.70;99.90;;;;;;4985868;28;20221;-67
2022/05/05 05:45:57;;;;;;;15.87;12.10;;;14.70;99.90;;;;;;4984754;28;20230;-71
2022/05/05 05:48:23;;;;;;;15.10;11.77;;;14.70;99.90;;;;;;4988708;28;20477;-69
2022/05/05 05:50:48;;;;;;;13.47;9.67;;;14.70;99.90;;;;;;4984832;28;20253;-68
2022/05/05 05:53:14;;;;;;;15.30;11.13;;;14.70;99.90;;;;;;5004974;28;20672;-68
2022/05/05 05:55:39;;;;;;;18.47;8.97;;;14.70;99.90;;;;;;4988280;28;20630;-67
2022/05/05 05:58:05;;;;;;;17.07;11.37;;;14.70;99.90;;;;;;4985589;28;20694;-70
2022/05/05 06:00:32;;;;;;;17.67;11.57;;;14.70;99.90;;;;;;4987538;28;20725;-69
2022/05/05 06:05:42;;;;;;;14.57;9.73;;;14.70;99.90;;;;;;4985615;28;20467;-70
2022/05/05 06:08:08;;;;;;;12.77;9.70;;;14.70;99.90;;;;;;4986957;28;20461;-70
2022/05/05 06:10:36;;;;;;;19.47;11.30;;;14.80;99.90;;;;;;4986323;28;20237;-69
2022/05/05 06:13:02;;;;;;;11.67;9.80;;;14.80;99.90;;;;;;4984688;28;20857;-70
2022/05/05 06:15:28;;;;;;;13.13;10.13;;;14.70;99.90;;;;;;4985099;28;20987;-70
2022/05/05 06:17:54;;;;;;;13.27;10.60;;;14.80;99.90;;;;;;4982314;28;20441;-70
2022/05/05 06:20:20;;;;;;;15.33;11.83;;;14.80;99.90;;;;;;4969579;28;20622;-70
2022/05/05 06:22:47;;;;;;;15.63;10.80;;;14.80;99.90;;;;;;4992505;28;20465;-71
2022/05/05 06:25:13;;;;;;;14.17;10.60;;;14.80;99.90;;;;;;4983083;28;20479;-68
2022/05/05 06:27:39;;;;;;;13.47;10.60;;;14.80;99.90;;;;;;4987657;28;20457;-70
2022/05/05 06:30:07;;;;;;;14.13;11.23;;;14.80;99.90;;;;;;4988589;28;20648;-70
2022/05/05 06:32:33;;;;;;;14.60;11.43;;;14.80;99.90;;;;;;4973511;28;20456;-70
2022/05/05 06:34:58;;;;;;;15.87;11.40;;;14.80;99.90;;;;;;4986490;28;21017;-69
2022/05/05 06:37:24;;;;;;;15.10;10.30;;;14.70;99.90;;;;;;4987210;28;20318;-69
2022/05/05 06:39:51;;;;;;;12.40;10.60;;;14.70;99.90;;;;;;4983542;28;20629;-69
2022/05/05 06:42:16;;;;;;;15.90;10.63;;;14.70;99.90;;;;;;4990554;28;20229;-69
2022/05/05 06:44:42;;;;;;;12.37;9.67;;;14.70;99.90;;;;;;4983669;28;20463;-69
2022/05/05 06:47:08;;;;;;;17.90;10.20;;;14.70;99.90;;;;;;4987948;28;20244;-70
2022/05/05 06:49:34;;;;;;;13.23;10.33;;;14.70;99.90;;;;;;4985278;28;20226;-68
2022/05/05 06:52:00;;;;;;;11.80;8.80;;;14.70;99.90;;;;;;4968592;28;20453;-69
2022/05/05 06:54:26;;;;;;;12.37;8.80;;;14.70;99.90;;;;;;4988554;28;20237;-69
2022/05/05 06:56:52;;;;;;;8.83;7.90;;;14.70;99.90;;;;;;4988899;28;20592;-69
2022/05/05 06:59:18;;;;;;;11.10;9.43;;;14.80;99.90;;;;;;4989655;28;20468;-68
2022/05/05 07:01:53;;;;;;;12.70;8.80;;;14.80;99.90;;;;;;4989259;28;20773;-69
2022/05/05 07:07:13;;;;;;;7.87;7.07;;;14.70;99.90;;;;;;4985794;28;20463;-67
2022/05/05 07:12:25;;;;;;;10.27;6.30;;;14.70;99.90;;;;;;4987355;28;20457;-69
2022/05/05 07:14:51;;;;;;;13.50;6.90;;;14.70;99.90;;;;;;4967086;28;20854;-70
2022/05/05 07:17:17;;;;;;;7.27;5.77;;;14.60;99.90;;;;;;4986128;28;20464;-69
2022/05/05 07:19:43;;;;;;;6.93;5.70;;;14.70;99.90;;;;;;4986877;28;20361;-69
2022/05/05 07:22:09;;;;;;;8.30;5.20;;;14.60;99.90;;;;;;4986173;28;20311;-69
2022/05/05 07:24:35;;;;;;;9.57;5.43;;;14.70;99.90;;;;;;4986927;28;21037;-69
2022/05/05 07:27:02;;;;;;;5.60;4.73;;;14.60;99.90;;;;;;4985688;28;20456;-69
2022/05/05 07:29:28;;;;;;;8.03;4.37;;;14.60;99.90;;;;;;4978201;28;20478;-69
2022/05/05 07:31:54;;;;;;;12.03;4.77;;;14.60;99.90;;;;;;4980946;28;20470;-69
2022/05/05 07:34:19;;;;;;;6.33;4.33;;;14.60;99.90;;;;;;4969964;28;20530;-68
2022/05/05 07:36:45;;;;;;;7.70;4.67;;;14.60;99.90;;;;;;5001491;28;20785;-70
2022/05/05 07:39:12;;;;;;;7.33;4.57;;;14.60;99.90;;;;;;4985568;28;20217;-70
2022/05/05 07:41:38;;;;;;;9.13;5.33;;;14.60;99.90;;;;;;4985567;28;20885;-69
2022/05/05 07:44:05;;;;;;;8.70;4.50;;;14.60;99.90;;;;;;4968319;28;20453;-69
2022/05/05 07:46:35;;;;;;;7.40;4.50;;;14.50;99.90;;;;;;4984699;28;20589;-70
2022/05/05 07:49:01;;;;;;;6.33;4.60;;;14.50;99.90;;;;;;4983347;28;20457;-68
2022/05/05 07:51:28;;;;;;;4.63;4.20;;;14.50;99.90;;;;;;4984255;28;20989;-68
2022/05/05 07:56:39;;;;;;;7.27;4.60;;;14.60;99.90;;;;;;4987487;28;20476;-69
2022/05/05 07:59:04;;;;;;;5.60;4.73;;;14.60;99.90;;;;;;4986781;28;20466;-69
2022/05/05 08:01:30;;;;;;;5.00;4.50;;;14.60;99.90;;;;;;4987495;28;20229;-69
2022/05/05 08:03:56;;;;;;;8.93;4.57;;;14.60;99.90;;;;;;4984302;28;20225;-70
2022/05/05 08:06:22;;;;;;;6.17;5.00;;;14.60;99.90;;;;;;5001407;28;20235;-70
2022/05/05 08:08:48;;;;;;;9.73;5.27;;;14.60;99.90;;;;;;4984787;28;20320;-69
2022/05/05 08:11:14;;;;;;;6.20;4.90;;;14.70;99.90;;;;;;4985482;28;20225;-68
2022/05/05 08:13:39;;;;;;;7.27;5.77;;;14.70;99.90;;;;;;4982374;28;20318;-69
2022/05/05 08:16:05;;;;;;;6.40;4.83;;;14.70;99.90;;;;;;4980888;28;20230;-68
2022/05/05 08:18:31;;;;;;;8.80;5.50;;;14.70;99.90;;;;;;4985124;28;20244;-70
2022/05/05 08:20:57;;;;;;;8.23;4.90;;;14.80;99.90;;;;;;4997947;28;20909;-70
2022/05/05 08:23:23;;;;;;;6.90;5.30;;;14.80;99.90;;;;;;4968719;28;20761;-69
2022/05/05 08:28:36;;;;;;;7.40;5.80;;;14.80;99.90;;;;;;4984038;28;20628;-69
2022/05/05 08:31:02;;;;;;;7.43;4.70;;;14.90;99.90;;;;;;4980765;28;20700;-68
2022/05/05 08:33:28;;;;;;;9.17;5.90;;;14.90;99.90;;;;;;4987821;28;20570;-68
2022/05/05 08:35:55;;;;;;;6.90;6.00;;;14.90;99.90;;;;;;4985093;28;20465;-69
2022/05/05 08:38:21;;;;;;;7.67;6.00;;;14.90;99.90;;;;;;5003030;28;20488;-69
2022/05/05 08:40:47;;;;;;;8.53;6.43;;;14.90;99.90;;;;;;4988063;28;20824;-69
2022/05/05 08:43:13;;;;;;;7.90;5.70;;;15.00;99.90;;;;;;4986822;28;20249;-69
2022/05/05 08:45:40;;;;;;;7.00;5.90;;;15.00;99.90;;;;;;4985177;28;20480;-69
2022/05/05 08:48:07;;;;;;;9.07;6.43;;;15.00;99.90;;;;;;4965550;28;20488;-69
2022/05/05 08:50:35;;;;;;;10.30;6.53;;;15.00;99.90;;;;;;4983619;28;20473;-69
2022/05/05 08:53:03;;;;;;;7.13;5.37;;;15.00;99.90;;;;;;4975457;28;20592;-70
2022/05/05 08:55:30;;;;;;;8.10;6.10;;;15.10;99.90;;;;;;4974240;28;20541;-69
2022/05/05 08:57:56;;;;;;;12.00;5.97;;;15.10;99.90;;;;;;4981196;28;20464;-70
2022/05/05 09:00:22;;;;;;;18.30;11.70;;;15.10;99.90;;;;;;4968241;28;20474;-69
2022/05/05 09:02:56;;;;;;;12.97;8.90;;;15.10;99.90;;;;;;4971660;28;20340;-69
2022/05/05 09:05:57;;;;;;;8.00;7.20;;;15.10;99.90;;;;;;4974442;28;20469;-69
2022/05/05 09:08:23;;;;;;;9.47;6.57;;;15.10;99.90;;;;;;4971284;28;20476;-70
2022/05/05 09:10:50;;;;;;;11.40;6.57;;;15.20;99.90;;;;;;4978820;28;21040;-70
2022/05/05 09:13:24;;;;;;;7.43;6.43;;;15.20;99.90;;;;;;4984653;28;20248;-71
2022/05/05 09:15:49;;;;;;;9.10;6.23;;;15.20;99.90;;;;;;4995581;28;20465;-70
2022/05/05 09:18:20;;;;;;;7.07;5.90;;;15.30;99.90;;;;;;4983835;28;20977;-69
2022/05/05 09:20:48;;;;;;;10.03;6.50;;;15.30;99.90;;;;;;5003211;28;20226;-70
2022/05/05 09:23:34;;;;;;;7.60;6.10;;;15.30;99.90;;;;;;5007053;28;20969;-70
2022/05/05 09:26:02;;;;;;;7.30;6.13;;;15.30;99.90;;;;;;4990571;28;20460;-70
2022/05/05 09:28:31;;;;;;;8.63;6.17;;;15.30;99.90;;;;;;4990013;28;20848;-69
2022/05/05 09:31:01;;;;;;;9.37;6.60;;;15.40;99.90;;;;;;4990795;28;20519;-69
2022/05/05 09:33:42;;;;;;;8.13;6.20;;;15.40;99.90;;;;;;4990782;28;20473;-70
2022/05/05 09:36:12;;;;;;;6.70;5.63;;;15.40;99.90;;;;;;4984839;28;21107;-70
2022/05/05 09:38:50;;;;;;;9.10;5.70;;;15.40;99.90;;;;;;4988239;28;20552;-69
2022/05/05 09:41:17;;;;;;;8.33;6.40;;;15.50;99.90;;;;;;4999434;28;20597;-71
2022/05/05 09:43:42;;;;;;;13.00;6.80;;;15.50;99.90;;;;;;4970536;28;21001;-70
2022/05/05 09:46:25;;;;;;;7.30;5.77;;;15.50;99.90;;;;;;4995884;28;20463;-70
2022/05/05 09:49:16;;;;;;;10.33;5.77;;;15.50;99.90;;;;;;4995860;28;20847;-70
2022/05/05 09:57:41;;;;;;;7.33;4.90;;;15.60;99.90;;;;;;4986661;28;20457;-69
2022/05/05 10:05:46;;;;;;;6.77;4.90;;;15.70;99.90;;;;;;4987640;28;20838;-70
2022/05/05 10:08:17;;;;;;;8.67;5.43;;;15.70;99.90;;;;;;4978683;28;20452;-69
2022/05/05 10:10:44;;;;;;;6.90;5.23;;;15.70;99.90;;;;;;4986670;28;20470;-69
2022/05/05 10:13:13;;;;;;;9.30;5.00;;;15.70;99.90;;;;;;4987752;28;20866;-70
2022/05/05 10:15:39;;;;;;;7.00;5.27;;;15.80;99.90;;;;;;4984267;28;20484;-70
2022/05/05 10:18:06;;;;;;;9.27;4.97;;;15.80;99.90;;;;;;4977027;28;20511;-70
2022/05/05 10:20:33;;;;;;;10.50;4.87;;;15.80;99.90;;;;;;4988611;28;20469;-70
2022/05/05 10:23:16;;;;;;;7.80;4.80;;;15.90;99.90;;;;;;4983717;28;20499;-70
2022/05/05 10:25:42;;;;;;;9.00;4.90;;;15.90;99.90;;;;;;4983855;28;20457;-70
2022/05/05 10:28:47;;;;;;;7.70;5.00;;;16.00;99.90;;;;;;4981464;28;20850;-70
2022/05/05 10:31:31;;;;;;;9.70;5.30;;;16.00;99.90;;;;;;4994864;28;20224;-69
2022/05/05 10:34:01;;;;;;;6.73;4.53;;;16.00;99.90;;;;;;4996995;28;20480;-69
2022/05/05 10:36:29;;;;;;;8.43;5.27;;;16.10;99.90;;;;;;4986135;28;20465;-70
2022/05/05 10:38:55;;;;;;;5.40;4.57;;;16.20;99.90;;;;;;4986942;28;20464;-70
2022/05/05 10:41:31;;;;;;;7.97;4.70;;;16.30;99.90;;;;;;4987411;28;20463;-69
2022/05/05 10:44:24;;;;;;;10.87;5.20;;;16.30;99.90;;;;;;5001860;28;20495;-71
2022/05/05 10:46:50;;;;;;;5.93;4.83;;;16.30;99.90;;;;;;4987702;28;20461;-69
2022/05/05 10:49:37;;;;;;;6.33;4.33;;;16.30;99.90;;;;;;4988123;28;20495;-69
2022/05/05 10:52:11;;;;;;;7.47;4.20;;;16.40;99.90;;;;;;4979884;28;20238;-69
2022/05/05 10:54:41;;;;;;;8.80;5.20;;;16.40;99.90;;;;;;4982490;28;20472;-71
2022/05/05 10:57:25;;;;;;;8.20;4.30;;;16.50;99.90;;;;;;4993965;28;20928;-69
2022/05/05 11:00:13;;;;;;;7.87;4.53;;;16.50;99.20;;;;;;4987290;28;20456;-70
2022/05/05 11:02:57;;;;;;;6.47;4.47;;;16.50;99.40;;;;;;4986077;28;20481;-70
2022/05/05 11:05:30;;;;;;;7.00;4.40;;;16.60;99.60;;;;;;4983994;28;20535;-70
2022/05/05 11:08:08;;;;;;;;;;;;;;;;;;;;;
2022/05/05 11:13:47;;;;;;;9.50;4.70;;;16.70;99.60;;;;;;4972100;28;20573;-70
2022/05/05 11:22:09;;;;;;;7.77;5.10;;;16.90;99.50;;;;;;5002930;28;20453;-70
2022/05/05 11:24:35;;;;;;;6.30;4.93;;;17.00;99.40;;;;;;4998376;28;20440;-69
2022/05/05 11:27:01;;;;;;;7.17;4.33;;;17.10;99.60;;;;;;4988294;28;20821;-70
2022/05/05 11:29:31;;;;;;;7.33;4.73;;;17.20;99.70;;;;;;4986062;28;20461;-70
2022/05/05 11:31:58;;;;;;;5.13;4.63;;;17.30;99.80;;;;;;4983439;28;20461;-70
2022/05/05 11:34:33;;;;;;;6.50;4.73;;;17.40;99.90;;;;;;4996031;28;20993;-69
2022/05/05 11:37:00;;;;;;;7.87;5.20;;;17.60;99.90;;;;;;4977508;28;20492;-70
2022/05/05 11:39:30;;;;;;;5.30;4.73;;;17.70;99.90;;;;;;4985941;28;20485;-70
2022/05/05 11:42:05;;;;;;;7.83;5.30;;;17.80;99.90;;;;;;4983451;28;20600;-70
2022/05/05 11:44:32;;;;;;;6.10;5.00;;;18.00;99.70;;;;;;4967611;28;20475;-70
2022/05/05 11:47:11;;;;;;;8.50;5.60;;;18.00;99.10;;;;;;4982342;28;20469;-69
2022/05/05 11:49:38;;;;;;;8.57;4.70;;;18.10;99.30;;;;;;4984073;28;20525;-69
2022/05/05 11:52:04;;;;;;;11.00;5.00;;;18.10;98.80;;;;;;4986277;28;20463;-69
2022/05/05 11:54:32;;;;;;;6.90;5.40;;;18.10;98.80;;;;;;4986650;28;20473;-70
2022/05/05 11:57:00;;;;;;;8.10;4.73;;;18.10;98.70;;;;;;4977286;28;20462;-68
2022/05/05 12:02:13;;;;;;;9.73;5.37;;;18.20;98.50;;;;;;4984165;28;20548;-69
2022/05/05 12:04:45;;;;;;;6.00;4.90;;;18.30;98.40;;;;;;4984129;28;20496;-69
2022/05/05 12:07:19;;;;;;;5.40;4.70;;;18.30;98.00;;;;;;4998316;28;20456;-69
2022/05/05 12:09:51;;;;;;;5.97;4.53;;;18.40;98.10;;;;;;4986039;28;20837;-69
2022/05/05 12:12:18;;;;;;;6.07;3.80;;;18.40;98.30;;;;;;4980632;28;20883;-69
2022/05/05 12:14:50;;;;;;;4.97;4.30;;;18.40;98.20;;;;;;5002758;28;20477;-70
2022/05/05 12:17:18;;;;;;;6.13;5.27;;;18.40;98.30;;;;;;5002827;28;20540;-69
2022/05/05 12:19:55;;;;;;;6.03;4.90;;;18.50;98.40;;;;;;4988004;28;21040;-70
2022/05/05 12:22:29;;;;;;;8.10;4.93;;;18.50;98.40;;;;;;4984674;28;20462;-69
2022/05/05 12:24:57;;;;;;;7.30;4.73;;;18.50;98.10;;;;;;4985508;28;21037;-70
2022/05/05 12:27:27;;;;;;;6.80;5.70;;;18.50;98.00;;;;;;4970991;28;20544;-68
2022/05/05 12:29:53;;;;;;;5.43;4.73;;;18.50;97.90;;;;;;4967597;28;20467;-70
2022/05/05 12:32:19;;;;;;;14.47;5.77;;;18.40;97.20;;;;;;4970696;28;20829;-70
2022/05/05 12:34:46;;;;;;;8.60;6.03;;;18.40;96.90;;;;;;4965850;28;20308;-69
2022/05/05 12:37:20;;;;;;;11.63;5.97;;;18.40;96.70;;;;;;4987583;28;20496;-69
2022/05/05 12:40:01;;;;;;;9.97;5.97;;;18.30;96.20;;;;;;4995383;28;21022;-69
2022/05/05 12:42:40;;;;;;;7.23;6.10;;;18.30;96.10;;;;;;5001719;28;20489;-70
2022/05/05 12:45:08;;;;;;;7.47;5.90;;;18.30;96.50;;;;;;5000589;28;20456;-70
2022/05/05 12:47:39;;;;;;;8.33;5.53;;;18.30;96.50;;;;;;4986256;28;20465;-70
2022/05/05 12:50:24;;;;;;;6.33;5.73;;;18.30;96.30;;;;;;4984682;28;20563;-70
2022/05/05 13:01:03;;;;;;;6.13;4.87;;;18.70;96.80;;;;;;4989800;28;20452;-71
2022/05/05 13:03:30;;;;;;;7.40;5.30;;;18.80;96.00;;;;;;4990980;28;20531;-68
2022/05/05 13:05:56;;;;;;;7.60;5.73;;;18.80;95.60;;;;;;4988904;28;20342;-70
2022/05/05 13:08:21;;;;;;;9.03;5.50;;;18.80;95.70;;;;;;4992033;28;20448;-70
2022/05/05 13:10:47;;;;;;;7.27;6.13;;;18.80;95.50;;;;;;5006927;28;20786;-70
2022/05/05 13:13:14;;;;;;;9.17;6.43;;;18.80;96.00;;;;;;4992051;28;20236;-70
2022/05/05 13:15:41;;;;;;;13.40;5.97;;;18.80;95.30;;;;;;4997164;28;20221;-70
2022/05/05 13:18:07;;;;;;;9.30;6.30;;;18.80;95.20;;;;;;4988762;28;20877;-70
2022/05/05 13:20:33;;;;;;;10.30;6.20;;;18.80;96.20;;;;;;4991527;28;21032;-69
2022/05/05 13:23:00;;;;;;;24.60;15.40;;;18.90;96.00;;;;;;5001838;28;20481;-70
2022/05/05 13:25:26;;;;;;;25.97;14.70;;;18.90;95.90;;;;;;4968063;28;20244;-68
2022/05/05 13:27:52;;;;;;;14.17;9.37;;;19.00;96.10;;;;;;4984766;28;20461;-67
2022/05/05 13:30:18;;;;;;;11.73;7.47;;;19.00;96.30;;;;;;4989261;28;20470;-68
2022/05/05 13:32:44;;;;;;;9.87;7.47;;;19.00;96.10;;;;;;4999492;28;20461;-66
2022/05/05 13:35:10;;;;;;;11.63;6.47;;;19.00;96.10;;;;;;4969537;28;20240;-69
2022/05/05 13:37:37;;;;;;;12.27;5.67;;;19.00;96.10;;;;;;4976914;28;20218;-69
2022/05/05 13:40:07;;;;;;;12.93;6.57;;;18.90;96.20;;;;;;4985735;28;20499;-70
2022/05/05 13:42:33;;;;;;;15.30;7.03;;;18.90;96.00;;;;;;4988325;28;20472;-70